createdAt,value
2023-03-28T00:04:41.453Z,-0.98
2023-03-28T00:09:43.446Z,-1.19
2023-03-28T00:14:46.397Z,-1.23
2023-03-28T00:19:49.993Z,-1.29
2023-03-28T00:24:53.896Z,-1.13
2023-03-28T00:29:55.707Z,-1.20
2023-03-28T00:34:57.895Z,-1.25
2023-03-28T00:39:59.636Z,-1.22
2023-03-28T00:45:01.911Z,-1.30
2023-03-28T00:50:07.155Z,-1.29
2023-03-28T00:55:15.662Z,-1.07
2023-03-28T01:00:19.087Z,-0.76
2023-03-28T01:05:31.934Z,-0.58
2023-03-28T01:10:34.563Z,-0.46
2023-03-28T01:15:38.056Z,-0.49
2023-03-28T01:20:55.217Z,-0.56
2023-03-28T01:26:17.368Z,-0.70
2023-03-28T01:31:38.168Z,-0.77
2023-03-28T01:37:41.075Z,-0.84
2023-03-28T01:43:02.988Z,-0.82
2023-03-28T01:48:22.025Z,-0.86
2023-03-28T01:53:43.126Z,-0.83
2023-03-28T01:58:51.859Z,-0.90
2023-03-28T02:04:03.091Z,-0.87
2023-03-28T02:09:16.609Z,-0.86
2023-03-28T02:14:43.963Z,-0.71
2023-03-28T02:20:11.748Z,-0.62
2023-03-28T02:25:32.482Z,-0.55
2023-03-28T02:30:59.082Z,-0.72
2023-03-28T02:36:07.255Z,-0.74
2023-03-28T02:41:32.005Z,-0.70
2023-03-28T02:46:46.555Z,-0.68
2023-03-28T02:51:58.639Z,-0.64
2023-03-28T02:57:13.316Z,-0.63
2023-03-28T03:02:21.565Z,-0.68
2023-03-28T03:07:25.004Z,-0.78
2023-03-28T03:12:26.963Z,-0.74
2023-03-28T03:17:31.685Z,-0.73
2023-03-28T03:22:34.694Z,-0.52
2023-03-28T03:27:37.547Z,-0.34
2023-03-28T03:32:41.350Z,-0.05
2023-03-28T03:37:43.590Z,0.22
2023-03-28T03:42:45.405Z,0.30
2023-03-28T03:47:47.200Z,0.37
2023-03-28T03:52:49.009Z,0.41
2023-03-28T03:57:51.182Z,0.40
2023-03-28T04:06:20.630Z,0.48
2023-03-28T04:11:23.066Z,0.55
2023-03-28T04:16:26.276Z,0.52
2023-03-28T04:21:42.849Z,0.52
2023-03-28T04:26:45.929Z,0.54
2023-03-28T04:31:51.081Z,0.51
2023-03-28T04:36:52.925Z,0.34
2023-03-28T04:41:55.756Z,0.33
2023-03-28T04:46:58.409Z,0.35
2023-03-28T04:52:01.217Z,0.40
2023-03-28T04:57:04.803Z,0.44
2023-03-28T05:02:18.033Z,0.37
2023-03-28T05:07:27.231Z,0.50
2023-03-28T05:12:29.791Z,0.72
2023-03-28T05:17:37.242Z,0.92
2023-03-28T05:22:51.044Z,1.03
2023-03-28T05:27:53.072Z,1.01
2023-03-28T05:32:54.887Z,1.23
2023-03-28T05:37:56.815Z,1.22
2023-03-28T05:42:58.802Z,1.34
2023-03-28T05:48:00.878Z,1.37
2023-03-28T05:53:04.236Z,1.45
2023-03-28T05:58:06.423Z,1.73
2023-03-28T06:03:16.533Z,1.62
2023-03-28T06:08:19.711Z,1.54
2023-03-28T06:13:21.758Z,1.52
2023-03-28T06:18:23.798Z,1.63
2023-03-28T06:23:25.866Z,1.89
2023-03-28T06:28:28.101Z,2.18
2023-03-28T06:33:41.597Z,1.70
2023-03-28T06:38:45.855Z,1.11
2023-03-28T06:43:47.789Z,0.58
2023-03-28T06:49:25.431Z,0.41
2023-03-28T06:54:49.984Z,0.55
2023-03-28T06:59:52.697Z,0.84
2023-03-28T07:04:59.450Z,1.13
2023-03-28T07:10:01.390Z,1.33
2023-03-28T07:15:06.046Z,1.45
2023-03-28T07:20:08.720Z,1.81
2023-03-28T07:25:11.108Z,1.92
2023-03-28T07:30:14.326Z,2.03
2023-03-28T07:35:16.364Z,2.08
2023-03-28T07:40:22.173Z,2.40
2023-03-28T07:45:23.959Z,2.81
2023-03-28T07:50:27.141Z,3.32
2023-03-28T07:55:30.060Z,2.94
2023-03-28T08:00:34.562Z,2.33
2023-03-28T08:06:20.022Z,2.41
2023-03-28T08:11:31.227Z,2.78
2023-03-28T08:16:33.698Z,2.54
2023-03-28T08:21:36.590Z,2.39
2023-03-28T08:26:39.234Z,2.31
2023-03-28T08:31:42.594Z,2.42
2023-03-28T08:36:47.495Z,2.68
2023-03-28T08:42:20.263Z,3.11
2023-03-28T08:47:29.197Z,3.50
2023-03-28T08:52:31.856Z,3.59
2023-03-28T08:57:36.185Z,3.05
2023-03-28T09:02:38.116Z,2.48
2023-03-28T09:08:00.351Z,2.89
2023-03-28T09:13:24.510Z,3.17
2023-03-28T09:19:00.556Z,3.15
2023-03-28T09:24:21.062Z,3.12
2023-03-28T09:29:45.755Z,3.66
2023-03-28T09:34:51.195Z,3.97
2023-03-28T09:39:56.499Z,3.72
2023-03-28T09:45:30.483Z,3.54
2023-03-28T09:50:32.386Z,3.42
2023-03-28T09:55:35.678Z,3.45
2023-03-28T10:00:44.124Z,3.47
2023-03-28T10:06:27.755Z,3.13
2023-03-28T10:11:29.613Z,2.91
2023-03-28T10:16:32.288Z,3.27
2023-03-28T10:21:34.144Z,4.08
2023-03-28T10:26:43.529Z,4.17
2023-03-28T10:31:50.156Z,3.80
2023-03-28T10:37:02.644Z,3.42
2023-03-28T10:42:18.983Z,3.61
2023-03-28T10:47:30.350Z,3.93
2023-03-28T10:52:49.605Z,4.27
2023-03-28T10:58:03.361Z,4.45
2023-03-28T11:03:20.397Z,4.91
2023-03-28T11:08:46.254Z,3.72
2023-03-28T11:14:04.090Z,2.42
2023-03-28T11:19:38.476Z,1.59
2023-03-28T11:24:57.172Z,1.88
2023-03-28T11:30:24.234Z,2.44
2023-03-28T11:35:46.438Z,2.55
2023-03-28T11:41:13.312Z,2.97
2023-03-28T11:46:35.215Z,3.78
2023-03-28T11:51:45.822Z,3.56
2023-03-28T11:57:04.569Z,3.11
2023-03-28T12:02:55.248Z,2.04
2023-03-28T12:08:05.577Z,1.44
2023-03-28T12:13:27.072Z,1.61
2023-03-28T12:18:38.927Z,1.74
2023-03-28T12:24:04.223Z,1.82
2023-03-28T12:29:21.755Z,2.11
2023-03-28T12:34:38.425Z,2.25
2023-03-28T12:40:39.254Z,2.48
2023-03-28T12:45:47.569Z,2.89
2023-03-28T12:50:56.403Z,3.17
2023-03-28T12:55:58.754Z,3.58
2023-03-28T13:01:07.399Z,3.75
2023-03-28T13:06:30.683Z,3.82
2023-03-28T13:11:54.729Z,4.18
2023-03-28T13:16:59.171Z,4.46
2023-03-28T13:22:01.047Z,4.62
2023-03-28T13:27:30.418Z,4.60
2023-03-28T13:32:42.024Z,5.08
2023-03-28T13:37:43.661Z,4.71
2023-03-28T13:42:57.000Z,4.11
2023-03-28T13:48:12.065Z,2.83
2023-03-28T13:53:15.417Z,1.80
2023-03-28T13:58:19.008Z,1.84
2023-03-28T14:03:21.288Z,2.02
2023-03-28T14:08:25.622Z,2.46
2023-03-28T14:13:30.605Z,2.96
2023-03-28T14:18:48.028Z,3.14
2023-03-28T14:23:59.445Z,2.95
2023-03-28T14:29:07.638Z,2.81
2023-03-28T14:34:15.141Z,2.39
2023-03-28T14:39:18.368Z,1.93
2023-03-28T14:44:21.058Z,2.07
2023-03-28T14:49:25.207Z,2.38
2023-03-28T14:54:38.843Z,2.09
2023-03-28T14:59:45.054Z,1.46
2023-03-28T15:04:47.464Z,1.30
2023-03-28T15:10:07.557Z,1.64
2023-03-28T15:15:29.196Z,1.69
2023-03-28T15:20:34.839Z,1.43
2023-03-28T15:25:36.926Z,1.70
2023-03-28T15:30:44.041Z,2.25
2023-03-28T15:35:47.032Z,2.73
2023-03-28T15:40:50.955Z,3.13
2023-03-28T15:46:14.060Z,3.20
2023-03-28T15:51:18.882Z,3.28
2023-03-28T15:56:37.126Z,3.53
2023-03-28T16:01:38.950Z,3.55
2023-03-28T16:06:44.697Z,3.17
2023-03-28T16:11:49.615Z,2.47
2023-03-28T16:17:25.150Z,1.87
2023-03-28T16:22:35.846Z,1.63
2023-03-28T16:27:38.632Z,1.39
2023-03-28T16:32:40.429Z,1.16
2023-03-28T16:37:42.204Z,1.01
2023-03-28T16:42:44.375Z,0.90
2023-03-28T16:47:47.384Z,0.83
2023-03-28T16:52:56.169Z,0.77
2023-03-28T16:57:57.908Z,0.72
2023-03-28T17:03:07.978Z,0.64
2023-03-28T17:08:09.883Z,0.61
2023-03-28T17:13:11.649Z,0.63
2023-03-28T17:18:13.465Z,0.75
2023-03-28T17:23:15.253Z,0.79
2023-03-28T17:28:17.070Z,0.83
2023-03-28T17:33:19.567Z,0.78
2023-03-28T17:38:21.738Z,0.71
2023-03-28T17:43:23.486Z,0.63
2023-03-28T17:48:25.205Z,0.61
2023-03-28T17:53:26.970Z,0.53
2023-03-28T17:58:28.811Z,0.57
2023-03-28T18:03:31.016Z,0.55
2023-03-28T18:08:59.070Z,0.57
2023-03-28T18:14:01.137Z,0.56
2023-03-28T18:19:03.496Z,0.52
2023-03-28T18:24:05.627Z,0.46
2023-03-28T18:29:07.905Z,0.44
2023-03-28T18:34:09.613Z,0.43
2023-03-28T18:39:12.549Z,0.34
2023-03-28T18:44:14.956Z,0.16
2023-03-28T18:49:16.748Z,0.07
2023-03-28T18:54:18.699Z,-0.03
2023-03-28T18:59:20.959Z,-0.16
2023-03-28T19:04:24.085Z,-0.25
2023-03-28T19:09:26.377Z,-0.30
2023-03-28T19:14:28.440Z,-0.35
2023-03-28T19:19:30.467Z,-0.42
2023-03-28T19:24:33.803Z,-0.43
2023-03-28T19:29:35.791Z,-0.42
2023-03-28T19:34:37.501Z,-0.47
2023-03-28T19:39:39.168Z,-0.49
2023-03-28T19:44:40.815Z,-0.50
2023-03-28T19:49:42.935Z,-0.52
2023-03-28T19:54:44.624Z,-0.60
2023-03-28T19:59:47.706Z,-0.60
2023-03-28T20:04:49.507Z,-0.64
2023-03-28T20:09:51.224Z,-0.71
2023-03-28T20:14:54.436Z,-0.70
2023-03-28T20:19:58.354Z,-0.74
2023-03-28T20:25:00.561Z,-0.77
2023-03-28T20:30:03.598Z,-0.78
2023-03-28T20:35:06.777Z,-0.86
2023-03-28T20:40:11.967Z,-0.95
2023-03-28T20:45:22.159Z,-0.92
2023-03-28T20:50:26.515Z,-0.90
2023-03-28T20:55:32.118Z,-0.98
2023-03-28T21:00:35.831Z,-1.03
2023-03-28T21:05:44.926Z,-1.02
2023-03-28T21:10:53.514Z,-1.08
2023-03-28T21:15:59.159Z,-1.11
2023-03-28T21:21:01.350Z,-1.10
2023-03-28T21:26:08.748Z,-1.24
2023-03-28T21:31:17.003Z,-1.27
2023-03-28T21:36:19.718Z,-1.31
2023-03-28T21:41:23.930Z,-1.52
2023-03-28T21:46:27.285Z,-1.61
2023-03-28T21:51:31.752Z,-1.75
2023-03-28T21:56:42.307Z,-1.94
2023-03-28T22:01:44.085Z,-2.11
2023-03-28T22:06:45.892Z,-2.33
2023-03-28T22:11:48.429Z,-2.51
2023-03-28T22:16:50.601Z,-2.68
2023-03-28T22:21:52.451Z,-2.96
2023-03-28T22:26:54.522Z,-3.10
2023-03-28T22:31:56.932Z,-3.19
2023-03-28T22:36:58.678Z,-3.29
2023-03-28T22:42:00.705Z,-3.10
2023-03-28T22:47:03.198Z,-3.30
2023-03-28T22:52:06.273Z,-3.46
2023-03-28T22:57:08.397Z,-3.53
2023-03-28T23:02:11.444Z,-3.65
2023-03-28T23:07:16.423Z,-3.81
2023-03-28T23:12:38.647Z,-3.93
2023-03-28T23:17:42.938Z,-4.16
2023-03-28T23:22:47.449Z,-4.26
2023-03-28T23:27:49.200Z,-4.43
2023-03-28T23:32:52.436Z,-4.54
2023-03-28T23:37:54.233Z,-4.42
2023-03-28T23:43:03.698Z,-4.41
2023-03-28T23:48:07.314Z,-4.37
2023-03-28T23:53:16.275Z,-4.30
2023-03-28T23:58:17.953Z,-4.34
